createdAt,value
2015-11-19T00:00:53.375Z,10.9
2015-11-19T00:01:55.097Z,10.9
2015-11-19T00:02:57.131Z,10.9
2015-11-19T00:03:59.180Z,10.9
2015-11-19T00:05:01.183Z,10.9
2015-11-19T00:06:03.217Z,10.9
2015-11-19T00:07:05.250Z,10.9
2015-11-19T00:08:07.285Z,10.9
2015-11-19T00:09:09.303Z,10.9
2015-11-19T00:10:11.336Z,10.9
2015-11-19T00:11:13.464Z,10.9
2015-11-19T00:12:15.155Z,10.9
2015-11-19T00:13:16.939Z,10.9
2015-11-19T00:14:18.942Z,10.9
2015-11-19T00:15:20.710Z,10.9
2015-11-19T00:16:22.494Z,10.9
2015-11-19T00:17:24.294Z,10.9
2015-11-19T00:18:26.046Z,10.9
2015-11-19T00:19:27.816Z,10.9
2015-11-19T00:20:29.583Z,10.9
2015-11-19T00:21:31.430Z,11
2015-11-19T00:22:33.136Z,10.9
2015-11-19T00:23:34.670Z,10.9
2015-11-19T00:24:36.173Z,10.9
2015-11-19T00:25:37.675Z,11
2015-11-19T00:26:39.210Z,11
2015-11-19T00:27:40.712Z,10.9
2015-11-19T00:29:43.749Z,11
2015-11-19T00:30:45.256Z,11
2015-11-19T00:31:46.867Z,11
2015-11-19T00:32:48.542Z,11
2015-11-19T00:33:49.811Z,11
2015-11-19T00:34:51.064Z,11
2015-11-19T00:35:52.331Z,11
2015-11-19T00:36:53.585Z,11
2015-11-19T00:37:54.853Z,11
2015-11-19T00:38:56.106Z,11
2015-11-19T00:39:57.375Z,11
2015-11-19T00:40:58.628Z,11
2015-11-19T00:41:59.692Z,11
2015-11-19T00:43:01.429Z,11
2015-11-19T00:44:02.448Z,11
2015-11-19T00:45:03.419Z,11
2015-11-19T00:46:04.422Z,11
2015-11-19T00:47:05.425Z,11
2015-11-19T00:48:06.427Z,11
2015-11-19T00:49:07.431Z,11
2015-11-19T00:50:08.199Z,10.9
2015-11-19T00:51:09.186Z,11
2015-11-19T00:52:09.986Z,11
2015-11-19T00:53:11.707Z,11
2015-11-19T00:54:12.459Z,11
2015-11-19T00:55:13.196Z,11
2015-11-19T00:56:13.949Z,11
2015-11-19T00:57:14.702Z,11
2015-11-19T00:59:16.223Z,11
2015-11-19T01:00:16.961Z,11
2015-11-19T01:01:17.697Z,11
2015-11-19T01:02:18.513Z,11
2015-11-19T01:03:20.234Z,11
2015-11-19T01:04:20.972Z,11
2015-11-19T01:05:21.709Z,11.1
2015-11-19T01:06:22.211Z,11
2015-11-19T01:07:22.699Z,11.1
2015-11-19T01:08:23.186Z,11.1
2015-11-19T01:09:23.689Z,11.1
2015-11-19T01:10:24.176Z,11.1
2015-11-19T01:11:24.678Z,11.1
2015-11-19T01:12:25.213Z,11.1
2015-11-19T01:13:26.933Z,11.1
2015-11-19T01:14:27.421Z,11.1
2015-11-19T01:15:27.658Z,11.1
2015-11-19T01:16:27.880Z,11.2
2015-11-19T01:17:28.117Z,11.2
2015-11-19T01:18:28.355Z,11.2
2015-11-19T01:19:28.608Z,11.2
2015-11-19T01:20:28.828Z,11.2
2015-11-19T01:21:29.066Z,11.2
2015-11-19T01:22:29.380Z,11.2
2015-11-19T01:23:31.086Z,11.2
2015-11-19T01:24:31.276Z,11.3
2015-11-19T01:25:31.529Z,11.3
2015-11-19T01:26:31.718Z,11.3
2015-11-19T01:27:31.955Z,11.3
2015-11-19T01:28:32.160Z,11.3
2015-11-19T01:29:32.391Z,11.3
2015-11-19T01:30:32.637Z,11.3
2015-11-19T01:31:32.868Z,11.3
2015-11-19T01:32:32.881Z,11.3
2015-11-19T01:33:34.612Z,11.3
2015-11-19T01:34:34.565Z,11.3
2015-11-19T01:35:34.549Z,11.4
2015-11-19T01:36:34.519Z,11.4
2015-11-19T01:37:34.520Z,11.4
2015-11-19T01:38:34.224Z,11.4
2015-11-19T01:40:35.086Z,11.5
2015-11-19T01:41:33.385Z,11.5
2015-11-19T01:42:33.169Z,11.4
2015-11-19T01:43:34.874Z,11.5
2015-11-19T01:44:34.610Z,11.4
2015-11-19T01:45:35.737Z,11.5
2015-11-19T01:46:34.052Z,11.5
2015-11-19T01:47:33.758Z,11.5
2015-11-19T01:48:33.494Z,11.5
2015-11-19T01:49:33.216Z,11.5
2015-11-19T01:50:32.905Z,11.5
2015-11-19T01:51:32.893Z,11.5
2015-11-19T01:52:32.677Z,11.5
2015-11-19T01:53:34.399Z,11.6
2015-11-19T01:55:33.842Z,11.6
2015-11-19T01:56:33.563Z,11.6
2015-11-19T01:57:33.285Z,11.6
2015-11-19T01:58:33.021Z,11.6
2015-11-19T01:59:32.977Z,11.6
2015-11-19T02:00:33.215Z,11.7
2015-11-19T02:01:33.952Z,11.6
2015-11-19T02:02:34.766Z,11.6
2015-11-19T02:03:36.488Z,11.6
2015-11-19T02:04:37.991Z,11.6
2015-11-19T02:06:41.794Z,11.5
2015-11-19T02:07:44.077Z,11.5
2015-11-19T02:08:46.346Z,11.5
2015-11-19T02:09:44.786Z,11.5
2015-11-19T02:10:43.226Z,11.4
2015-11-19T02:11:41.932Z,11.4
2015-11-19T02:12:40.685Z,11.3
2015-11-19T02:13:42.390Z,11.3
2015-11-19T02:14:41.284Z,11.3
2015-11-19T02:15:43.084Z,11.3
2015-11-19T02:16:39.274Z,11.3
2015-11-19T02:17:38.480Z,11.3
2015-11-19T02:18:37.421Z,11.3
2015-11-19T02:19:36.610Z,11.3
2015-11-19T02:20:35.563Z,11.3
2015-11-19T02:21:34.519Z,11.3
2015-11-19T02:22:33.273Z,11.3
2015-11-19T02:23:35.010Z,11.3
2015-11-19T02:24:33.699Z,11.3
2015-11-19T02:25:35.734Z,11.3
2015-11-19T02:26:37.502Z,11.3
2015-11-19T02:27:39.287Z,11.3
2015-11-19T02:28:41.023Z,11.3
2015-11-19T02:29:42.542Z,11.3
2015-11-19T02:31:44.298Z,11.3
2015-11-19T02:32:45.096Z,11.3
2015-11-19T02:33:46.818Z,11.3
2015-11-19T02:34:47.290Z,11.3
2015-11-19T02:35:47.277Z,11.3
2015-11-19T02:36:47.858Z,11.3
2015-11-19T02:37:47.845Z,11.3
2015-11-19T02:38:48.362Z,11.3
2015-11-19T02:39:46.929Z,11.3
2015-11-19T02:40:46.900Z,11.3
2015-11-19T02:41:47.746Z,11.3
2015-11-19T02:42:47.421Z,11.3
2015-11-19T02:44:49.145Z,11.3
2015-11-19T02:46:49.745Z,11.3
2015-11-19T02:47:48.029Z,11.3
2015-11-19T02:48:47.766Z,11.3
2015-11-19T02:49:47.487Z,11.3
2015-11-19T02:51:48.337Z,11.3
2015-11-19T02:52:46.683Z,11.3
2015-11-19T02:53:48.436Z,11.2
2015-11-19T02:54:48.126Z,11.2
2015-11-19T02:55:49.550Z,11.2
2015-11-19T02:57:48.087Z,11.2
2015-11-19T02:58:48.042Z,11.2
2015-11-19T02:59:48.280Z,11.2
2015-11-19T03:00:48.517Z,11.2
2015-11-19T03:01:48.739Z,11.2
2015-11-19T03:02:49.054Z,11.2
2015-11-19T03:03:50.760Z,11.2
2015-11-19T03:04:51.513Z,11.2
2015-11-19T03:05:52.250Z,11.2
2015-11-19T03:06:53.253Z,11.2
2015-11-19T03:08:55.508Z,11.2
2015-11-19T03:14:02.850Z,11.1
2015-11-19T03:16:06.653Z,11.1
2015-11-19T03:17:08.672Z,11.1
2015-11-19T03:18:10.939Z,11.1
2015-11-19T03:19:09.380Z,11.1
2015-11-19T03:20:07.851Z,11.1
2015-11-19T03:21:06.275Z,11.1
2015-11-19T03:22:04.716Z,11.1
2015-11-19T03:23:03.718Z,11
2015-11-19T03:24:05.441Z,11.1
2015-11-19T03:25:04.396Z,11
2015-11-19T03:26:06.383Z,11
2015-11-19T03:28:01.511Z,11
2015-11-19T03:29:00.967Z,11
2015-11-19T03:30:00.188Z,11
2015-11-19T03:30:59.394Z,11
2015-11-19T03:31:58.616Z,11
2015-11-19T03:32:58.416Z,11
2015-11-19T03:34:00.121Z,10.9
2015-11-19T03:34:59.843Z,10.9
2015-11-19T03:35:59.564Z,10.9
2015-11-19T03:36:59.051Z,10.9
2015-11-19T03:37:59.007Z,10.9
2015-11-19T03:38:59.010Z,10.9
2015-11-19T03:39:59.247Z,10.9
2015-11-19T03:42:00.065Z,10.9
2015-11-19T03:42:59.739Z,10.9
2015-11-19T03:44:01.445Z,10.9
2015-11-19T03:45:01.698Z,10.9
2015-11-19T03:46:01.951Z,10.9
2015-11-19T03:47:02.157Z,10.9
2015-11-19T03:48:02.425Z,10.9
2015-11-19T03:49:02.632Z,10.9
2015-11-19T03:50:02.884Z,10.9
2015-11-19T03:51:03.105Z,10.9
2015-11-19T03:52:03.358Z,10.9
2015-11-19T03:53:03.642Z,10.9
2015-11-19T03:54:05.348Z,10.9
2015-11-19T03:56:05.821Z,10.9
2015-11-19T03:57:06.074Z,10.9
2015-11-19T03:59:06.549Z,10.9
2015-11-19T04:00:06.772Z,10.9
2015-11-19T04:01:07.025Z,10.9
2015-11-19T04:02:07.247Z,10.9
2015-11-19T04:03:07.530Z,10.8
2015-11-19T04:04:09.252Z,10.8
2015-11-19T04:05:09.505Z,10.8
2015-11-19T04:06:09.758Z,10.8
2015-11-19T04:07:09.964Z,10.8
2015-11-19T04:08:10.200Z,10.8
2015-11-19T04:09:10.436Z,10.8
2015-11-19T04:10:10.690Z,10.8
2015-11-19T04:11:10.911Z,10.8
2015-11-19T04:12:11.414Z,10.8
2015-11-19T04:13:11.947Z,10.8
2015-11-19T04:14:13.685Z,10.8
2015-11-19T04:15:14.172Z,10.8
2015-11-19T04:16:14.675Z,10.8
2015-11-19T04:18:15.381Z,10.8
2015-11-19T04:19:15.633Z,10.8
2015-11-19T04:20:16.136Z,10.8
2015-11-19T04:21:16.608Z,10.8
2015-11-19T04:23:17.160Z,10.8
2015-11-19T04:24:18.853Z,10.8
2015-11-19T04:25:19.090Z,10.8
2015-11-19T04:26:19.343Z,10.8
2015-11-19T04:27:19.830Z,10.8
2015-11-19T04:28:20.067Z,10.8
2015-11-19T04:29:20.585Z,10.8
2015-11-19T04:30:21.057Z,10.8
2015-11-19T04:31:21.543Z,10.8
2015-11-19T04:32:22.047Z,10.8
2015-11-19T04:33:22.581Z,10.7
2015-11-19T04:34:24.302Z,10.8
2015-11-19T04:35:24.523Z,10.7
2015-11-19T04:36:24.760Z,10.7
2015-11-19T04:38:25.232Z,10.7
2015-11-19T04:39:25.469Z,10.7
2015-11-19T04:40:25.722Z,10.7
2015-11-19T04:41:25.959Z,10.7
2015-11-19T04:42:26.195Z,10.7
2015-11-19T04:43:26.761Z,10.7
2015-11-19T04:44:28.483Z,10.7
2015-11-19T04:45:28.704Z,10.7
2015-11-19T04:46:28.926Z,10.7
2015-11-19T04:47:29.163Z,10.7
2015-11-19T04:48:29.416Z,10.7
2015-11-19T04:49:29.918Z,10.7
2015-11-19T04:50:30.406Z,10.7
2015-11-19T04:51:30.893Z,10.6
2015-11-19T04:52:31.427Z,10.6
2015-11-19T04:53:31.961Z,10.6
2015-11-19T04:54:33.667Z,10.6
2015-11-19T04:56:34.142Z,10.6
2015-11-19T04:57:34.659Z,10.6
2015-11-19T04:59:35.368Z,10.6
2015-11-19T05:00:35.620Z,10.6
2015-11-19T05:01:35.842Z,10.6
2015-11-19T05:02:36.111Z,10.6
2015-11-19T05:03:36.395Z,10.6
2015-11-19T05:04:38.117Z,10.6
2015-11-19T05:06:38.575Z,10.5
2015-11-19T05:08:39.049Z,10.5
2015-11-19T05:10:39.555Z,10.5
2015-11-19T05:12:40.014Z,10.5
2015-11-19T05:13:40.297Z,10.5
2015-11-19T05:14:42.019Z,10.5
2015-11-19T05:15:42.271Z,10.5
2015-11-19T05:16:42.508Z,10.5
2015-11-19T05:18:42.983Z,10.5
2015-11-19T05:19:43.236Z,10.5
2015-11-19T05:20:43.458Z,10.5
2015-11-19T05:21:43.694Z,10.5
2015-11-19T05:22:43.931Z,10.5
2015-11-19T05:23:44.247Z,10.5
2015-11-19T05:24:45.969Z,10.5
2015-11-19T05:26:46.427Z,10.5
2015-11-19T05:27:46.680Z,10.5
2015-11-19T05:28:46.900Z,10.5
2015-11-19T05:29:47.153Z,10.5
2015-11-19T05:30:47.406Z,10.5
2015-11-19T05:31:47.644Z,10.5
2015-11-19T05:32:47.897Z,10.5
2015-11-19T05:33:48.180Z,10.5
2015-11-19T05:34:49.886Z,10.5
2015-11-19T05:35:50.123Z,10.5
2015-11-19T05:37:50.594Z,10.5
2015-11-19T05:38:50.833Z,10.5
2015-11-19T05:39:51.100Z,10.5
2015-11-19T05:40:51.322Z,10.6
2015-11-19T05:41:51.903Z,10.6
2015-11-19T05:42:51.280Z,10.6
2015-11-19T05:43:51.299Z,10.7
2015-11-19T05:44:53.021Z,10.7
2015-11-19T05:45:53.007Z,10.7
2015-11-19T05:46:52.729Z,10.7
2015-11-19T05:47:52.482Z,10.7
2015-11-19T05:48:52.188Z,10.7
2015-11-19T05:49:51.941Z,10.8
2015-11-19T05:50:51.647Z,10.8
2015-11-19T05:52:53.604Z,10.9
2015-11-19T05:53:49.858Z,10.9
2015-11-19T05:54:51.563Z,10.9
2015-11-19T05:55:50.801Z,10.9
2015-11-19T05:56:49.740Z,10.9
2015-11-19T05:58:50.434Z,11
2015-11-19T05:59:45.827Z,11.1
2015-11-19T06:02:41.149Z,11.1
2015-11-19T06:03:39.682Z,11.2
2015-11-19T06:04:41.372Z,11.2
2015-11-19T06:07:36.693Z,11.3
2015-11-19T06:08:35.396Z,11.3
2015-11-19T06:10:32.777Z,11.3
2015-11-19T06:11:31.499Z,11.3
2015-11-19T06:13:29.191Z,11.3
2015-11-19T06:14:30.913Z,11.3
2015-11-19T06:15:30.118Z,11.3
2015-11-19T06:16:32.371Z,11.3
2015-11-19T06:17:28.827Z,11.3
2015-11-19T06:18:28.312Z,11.3
2015-11-19T06:19:27.766Z,11.3
2015-11-19T06:20:27.460Z,11.2
2015-11-19T06:21:28.389Z,11.2
2015-11-19T06:22:26.642Z,11.2
2015-11-19T06:23:26.269Z,11.2
2015-11-19T06:24:27.883Z,11.2
2015-11-19T06:25:27.339Z,11.2
2015-11-19T06:26:26.543Z,11.2
2015-11-19T06:27:25.750Z,11.1
2015-11-19T06:28:24.471Z,11.2
2015-11-19T06:29:26.755Z,11.2
2015-11-19T06:30:29.038Z,11.1
2015-11-19T06:31:31.339Z,11.2
2015-11-19T06:32:33.622Z,11.2
2015-11-19T06:33:35.953Z,11.2
2015-11-19T06:34:37.675Z,11.2
2015-11-19T06:35:39.959Z,11.2
2015-11-19T06:36:42.243Z,11.2
2015-11-19T06:37:44.011Z,11.2
2015-11-19T06:39:47.563Z,11.3
2015-11-19T06:40:49.332Z,11.3
2015-11-19T06:41:51.100Z,11.3
2015-11-19T06:43:54.715Z,11.3
2015-11-19T06:44:56.453Z,11.3
2015-11-19T06:45:57.955Z,11.3
2015-11-19T06:46:59.458Z,11.3
2015-11-19T06:48:00.977Z,11.3
2015-11-19T06:50:03.279Z,11.4
2015-11-19T06:51:04.532Z,11.3
2015-11-19T06:55:09.308Z,11.4
2015-11-19T06:56:10.046Z,11.4
2015-11-19T06:57:10.782Z,11.4
2015-11-19T06:59:12.027Z,11.4
2015-11-19T07:01:13.017Z,11.4
2015-11-19T07:02:13.504Z,11.4
2015-11-19T07:03:13.992Z,11.4
2015-11-19T07:04:14.541Z,11.4
2015-11-19T07:05:16.247Z,11.4
2015-11-19T07:06:16.234Z,11.4
2015-11-19T07:07:16.487Z,11.4
2015-11-19T07:08:16.817Z,11.4
2015-11-19T07:09:15.665Z,11.5
2015-11-19T07:10:15.135Z,11.5
2015-11-19T07:12:13.562Z,11.5
2015-11-19T07:13:12.503Z,11.5
2015-11-19T07:14:11.518Z,11.5
2015-11-19T07:15:13.228Z,11.6
2015-11-19T07:16:11.946Z,11.6
2015-11-19T07:17:10.620Z,11.6
2015-11-19T07:19:11.345Z,11.6
2015-11-19T07:22:10.525Z,11.7
2015-11-19T07:23:12.793Z,11.7
2015-11-19T07:25:16.861Z,11.7
2015-11-19T07:27:17.570Z,11.7
2015-11-19T07:28:19.854Z,11.7
2015-11-19T07:29:22.139Z,11.7
2015-11-19T07:31:26.723Z,11.7
2015-11-19T07:32:25.147Z,11.7
2015-11-19T07:33:27.430Z,11.7
2015-11-19T07:34:29.777Z,11.7
2015-11-19T07:35:31.484Z,11.7
2015-11-19T07:36:33.783Z,11.7
